Search for airport 
image banner adimage banner adimage banner ad
image banner ad

1CL0 - William Archibald

Located in San Dimas, United States

ICAO - 1CL0, IATA -

Data provided by Airmate  

General information

Coordinates: N34°6'17" W117°47'59"
Elevation is 984 feet MSL.
Magnetic variation is 14° East
View others Airports in California

Operational data

Special qualification required
Current time UTC:
Current local time:
Weather at : KPOC - Brackett Field ( 2 km )
METAR: KPOC 231347Z 00000KT 10SM CLR 19/12 A2994
View NOTAMs / SUP AIP / TFR affecting this airport [VIEW]
Communications frequencies: [VIEW]

Runways:

Airport contact information

Address: San Dimas United States

Satellite view of 1CL0